Time;durP1;ratioP1;P1;durP2;ratioP2;P2;SDS_P1;SDS_P2;PMS_P1;PMS_P2;Temp;Humidity;BMP_temperature;BMP_pressure;BME280_temperature;BME280_humidity;BME280_pressure;Samples;Min_cycle;Max_cycle;Signal;HPM_P1;HPM_P2
2023/07/05 00:00:03;;;;;;;0.20;0.20;;;;;;;18.16;64.75;99823.09;5018755;28;20060;-72
2023/07/05 00:02:31;;;;;;;0.20;0.20;;;;;;;18.10;64.39;99814.16;5017920;28;20057;-71
2023/07/05 00:04:57;;;;;;;0.20;0.20;;;;;;;18.10;64.78;99808.63;5016992;28;20145;-72
2023/07/05 00:07:23;;;;;;;0.10;0.10;;;;;;;18.11;65.08;99814.97;5017819;28;20050;-72
2023/07/05 00:09:50;;;;;;;0.20;0.20;;;;;;;18.10;65.16;99811.38;5036562;28;20052;-73
2023/07/05 00:12:18;;;;;;;0.20;0.20;;;;;;;18.09;65.24;99820.00;5003967;28;20096;-73
2023/07/05 00:14:44;;;;;;;0.22;0.22;;;;;;;18.10;65.22;99816.09;5003834;28;20050;-73
2023/07/05 00:17:10;;;;;;;0.20;0.20;;;;;;;18.04;65.13;99818.22;4999063;28;20085;-73
2023/07/05 00:19:37;;;;;;;0.20;0.20;;;;;;;18.04;65.28;99829.28;4986753;28;20080;-72
2023/07/05 00:22:03;;;;;;;0.15;0.15;;;;;;;18.00;65.31;99829.09;5017422;28;20045;-72
2023/07/05 00:24:29;;;;;;;0.20;0.20;;;;;;;17.98;65.95;99825.00;5020267;28;20053;-72
2023/07/05 00:26:56;;;;;;;0.20;0.20;;;;;;;17.97;65.72;99824.22;4998004;28;20433;-72
2023/07/05 00:29:23;;;;;;;0.25;0.25;;;;;;;17.97;65.97;99821.44;5022697;28;20045;-72
2023/07/05 00:31:50;;;;;;;0.20;0.20;;;;;;;17.97;65.89;99823.38;5000345;28;20072;-73
2023/07/05 00:34:16;;;;;;;0.20;0.20;;;;;;;17.97;65.98;99829.75;5018865;28;20248;-73
2023/07/05 00:36:42;;;;;;;0.20;0.20;;;;;;;17.91;66.02;99828.25;5017556;28;20560;-73
2023/07/05 00:39:08;;;;;;;0.20;0.20;;;;;;;17.89;66.30;99832.50;5017931;28;20057;-73
2023/07/05 00:41:35;;;;;;;0.20;0.20;;;;;;;17.89;66.74;99835.25;5014019;28;20129;-72
2023/07/05 00:44:01;;;;;;;0.43;0.30;;;;;;;17.88;66.96;99828.09;5000756;28;20145;-71
2023/07/05 00:46:31;;;;;;;0.20;0.20;;;;;;;17.87;66.73;99827.28;5020434;28;20052;-73
2023/07/05 00:49:03;;;;;;;0.20;0.20;;;;;;;17.82;67.05;99833.78;5013083;28;20054;-73
2023/07/05 00:51:39;;;;;;;0.20;0.20;;;;;;;17.81;67.26;99834.91;4999619;28;20049;-73
2023/07/05 00:54:05;;;;;;;0.20;0.20;;;;;;;17.80;67.00;99826.97;4988225;28;20603;-71
2023/07/05 00:56:36;;;;;;;;;;;;;;;17.77;67.44;99836.69;5014182;28;20072;-72
2023/07/05 00:59:02;;;;;;;0.10;0.10;;;;;;;17.75;67.35;99836.22;4983499;28;19967;-71
2023/07/05 01:01:30;;;;;;;0.20;0.20;;;;;;;17.68;67.48;99831.16;5010422;28;20056;-73
2023/07/05 01:03:59;;;;;;;0.20;0.20;;;;;;;17.70;67.88;99826.13;5019412;28;20045;-73
2023/07/05 01:06:27;;;;;;;0.40;0.30;;;;;;;17.69;67.79;99841.06;5031747;28;20552;-72
2023/07/05 01:08:53;;;;;;;0.20;0.20;;;;;;;17.69;67.96;99837.50;5017062;28;20060;-73
2023/07/05 01:11:25;;;;;;;0.20;0.20;;;;;;;17.67;68.27;99832.28;4990777;28;20818;-72
2023/07/05 01:13:59;;;;;;;0.20;0.20;;;;;;;17.70;68.23;99839.94;5018238;28;20051;-73
2023/07/05 01:16:42;;;;;;;0.20;0.20;;;;;;;17.70;68.63;99836.34;5015650;28;20041;-73
2023/07/05 01:19:27;;;;;;;0.20;0.20;;;;;;;17.71;68.33;99836.03;5018130;28;20052;-73
2023/07/05 01:22:00;;;;;;;0.30;0.20;;;;;;;17.70;68.69;99839.94;4982409;28;20459;-71
2023/07/05 01:24:48;;;;;;;0.20;0.20;;;;;;;17.70;68.57;99842.69;5018350;28;20705;-72
2023/07/05 01:27:44;;;;;;;0.20;0.20;;;;;;;17.70;69.02;99847.41;5015255;28;20046;-73
2023/07/05 01:30:33;;;;;;;0.20;0.20;;;;;;;17.72;68.92;99834.09;4984846;28;20049;-72
2023/07/05 01:33:05;;;;;;;0.20;0.20;;;;;;;17.71;68.94;99836.03;5020275;28;20045;-74
2023/07/05 01:35:37;;;;;;;0.20;0.20;;;;;;;17.73;69.11;99835.72;5018995;28;20076;-73
2023/07/05 01:38:05;;;;;;;0.25;0.20;;;;;;;17.74;69.34;99831.00;5014859;28;20057;-72
2023/07/05 01:41:03;;;;;;;0.20;0.20;;;;;;;17.76;69.82;99845.31;5013107;28;20440;-72
2023/07/05 01:43:31;;;;;;;0.35;0.30;;;;;;;17.77;69.20;99845.00;4947187;28;20058;-73
2023/07/05 01:46:23;;;;;;;0.20;0.20;;;;;;;17.75;69.54;99833.44;5001400;28;20046;-70
2023/07/05 01:49:15;;;;;;;0.20;0.20;;;;;;;17.83;69.48;99831.84;4984947;28;20056;-70
2023/07/05 01:51:50;;;;;;;0.20;0.20;;;;;;;17.84;68.97;99833.47;4998238;28;20232;-70
2023/07/05 01:54:23;;;;;;;0.20;0.20;;;;;;;17.91;68.84;99838.50;5001150;28;20197;-70
2023/07/05 01:56:55;;;;;;;0.20;0.20;;;;;;;17.96;69.00;99838.34;5016305;28;20042;-70
2023/07/05 01:59:26;;;;;;;0.30;0.30;;;;;;;18.02;68.62;99837.06;5014767;28;20041;-71
2023/07/05 02:01:58;;;;;;;0.20;0.20;;;;;;;18.07;68.54;99830.56;5015113;28;20049;-70
2023/07/05 02:04:27;;;;;;;0.30;0.30;;;;;;;18.11;68.40;99834.34;5014603;28;20052;-70
2023/07/05 02:06:53;;;;;;;0.20;0.20;;;;;;;18.18;68.35;99845.72;5017430;28;20045;-71
2023/07/05 02:09:20;;;;;;;0.20;0.20;;;;;;;18.21;68.44;99838.72;4985824;28;20505;-70
2023/07/05 02:11:46;;;;;;;0.20;0.20;;;;;;;18.25;68.40;99843.25;5015378;28;20077;-70
2023/07/05 02:14:14;;;;;;;0.30;0.30;;;;;;;18.32;68.21;99842.78;5017034;28;20054;-70
2023/07/05 02:16:41;;;;;;;0.20;0.20;;;;;;;18.40;68.04;99841.97;5018311;28;20076;-71
2023/07/05 02:19:07;;;;;;;0.20;0.20;;;;;;;18.49;67.77;99841.13;5000461;28;20045;-69
2023/07/05 02:21:35;;;;;;;0.47;0.30;;;;;;;18.47;67.58;99827.63;5019606;28;20139;-68
2023/07/05 02:24:01;;;;;;;0.30;0.30;;;;;;;18.60;67.76;99838.88;5023015;28;20143;-70
2023/07/05 02:26:27;;;;;;;0.20;0.20;;;;;;;18.66;67.47;99837.53;5022353;28;20141;-70
2023/07/05 02:28:53;;;;;;;0.30;0.30;;;;;;;18.78;66.96;99839.63;4987871;28;20057;-70
2023/07/05 02:31:20;;;;;;;0.25;0.25;;;;;;;18.84;66.98;99838.31;5019746;28;20049;-70
2023/07/05 02:33:46;;;;;;;0.20;0.20;;;;;;;18.92;66.54;99842.22;5012079;28;20050;-70
2023/07/05 02:36:14;;;;;;;0.20;0.20;;;;;;;18.95;66.79;99838.78;5011933;28;20112;-70
2023/07/05 02:38:42;;;;;;;0.30;0.30;;;;;;;18.93;66.59;99841.06;5015832;28;20076;-70
2023/07/05 02:41:08;;;;;;;0.30;0.30;;;;;;;18.93;66.88;99841.06;5014797;28;20136;-70
2023/07/05 02:43:35;;;;;;;0.30;0.30;;;;;;;18.95;66.99;99841.53;5019283;28;20046;-70
2023/07/05 02:46:01;;;;;;;0.20;0.20;;;;;;;18.92;66.73;99834.69;5016506;28;20064;-70
2023/07/05 02:48:29;;;;;;;0.28;0.28;;;;;;;18.88;66.94;99830.16;5015284;28;20455;-70
2023/07/05 02:50:59;;;;;;;0.20;0.20;;;;;;;19.01;66.86;99837.47;5005511;28;20050;-70
2023/07/05 02:53:25;;;;;;;0.20;0.20;;;;;;;19.06;67.02;99844.78;5021681;28;20055;-69
2023/07/05 02:55:53;;;;;;;0.30;0.30;;;;;;;19.05;66.87;99835.69;5023319;28;20645;-70
2023/07/05 02:58:19;;;;;;;0.30;0.30;;;;;;;19.02;66.99;99841.06;5002767;28;20045;-69
2023/07/05 03:00:45;;;;;;;0.20;0.20;;;;;;;19.04;67.26;99842.34;5013020;28;20168;-69
2023/07/05 03:03:11;;;;;;;0.30;0.30;;;;;;;19.08;66.61;99843.34;5016336;28;20049;-69
2023/07/05 03:05:37;;;;;;;0.30;0.30;;;;;;;19.12;66.29;99843.47;5000487;28;20052;-69
2023/07/05 03:08:04;;;;;;;0.30;0.30;;;;;;;19.20;66.42;99845.41;5015779;28;20045;-73
2023/07/05 03:10:30;;;;;;;0.30;0.30;;;;;;;19.36;66.03;99844.84;5021152;28;20041;-73
2023/07/05 03:12:58;;;;;;;0.20;0.20;;;;;;;19.47;64.90;99848.88;5012885;28;20057;-72
2023/07/05 03:15:24;;;;;;;0.30;0.30;;;;;;;19.50;64.79;99845.44;4994184;28;20087;-73
2023/07/05 03:17:50;;;;;;;0.30;0.30;;;;;;;19.61;64.93;99851.41;5013118;28;20434;-72
2023/07/05 03:20:17;;;;;;;0.30;0.30;;;;;;;19.65;64.50;99857.88;5016099;28;20041;-73
2023/07/05 03:22:43;;;;;;;0.20;0.20;;;;;;;19.65;65.04;99851.56;5000815;28;20065;-73
2023/07/05 03:25:09;;;;;;;0.20;0.20;;;;;;;19.75;64.37;99853.13;5016823;28;20060;-74
2023/07/05 03:27:35;;;;;;;0.30;0.30;;;;;;;19.84;63.95;99849.13;4994027;28;20037;-72
2023/07/05 03:30:05;;;;;;;0.20;0.20;;;;;;;19.90;64.28;99848.94;5015591;28;20107;-72
2023/07/05 03:32:32;;;;;;;0.20;0.20;;;;;;;19.95;63.80;99841.25;5012259;28;20420;-72
2023/07/05 03:34:59;;;;;;;0.30;0.30;;;;;;;20.13;62.83;99855.00;5005483;28;20056;-73
2023/07/05 03:37:27;;;;;;;0.30;0.30;;;;;;;20.18;62.76;99852.03;5000217;28;20045;-72
2023/07/05 03:39:53;;;;;;;0.30;0.30;;;;;;;20.28;62.61;99859.13;4998157;28;20050;-72
2023/07/05 03:42:20;;;;;;;0.30;0.30;;;;;;;20.34;62.15;99865.31;5020990;28;20057;-72
2023/07/05 03:44:46;;;;;;;0.30;0.30;;;;;;;20.34;62.17;99854.19;5015683;28;20058;-73
2023/07/05 03:47:13;;;;;;;0.30;0.30;;;;;;;20.36;62.20;99855.47;5020486;28;20052;-73
2023/07/05 03:49:40;;;;;;;0.30;0.30;;;;;;;20.33;62.00;99847.03;5019902;28;20064;-73
2023/07/05 03:52:06;;;;;;;0.30;0.30;;;;;;;20.35;61.65;99850.25;5002456;28;20410;-73
2023/07/05 03:54:32;;;;;;;0.30;0.30;;;;;;;20.38;61.80;99855.13;5020584;28;20433;-72
2023/07/05 03:56:59;;;;;;;0.30;0.30;;;;;;;20.46;61.73;99854.25;5015559;28;20042;-73
2023/07/05 03:59:25;;;;;;;0.30;0.30;;;;;;;20.54;61.66;99852.56;5016310;28;20143;-72
2023/07/05 04:01:51;;;;;;;0.30;0.30;;;;;;;20.65;61.41;99855.72;5015810;28;20304;-74
2023/07/05 04:04:18;;;;;;;0.30;0.30;;;;;;;20.69;61.14;99851.09;5018557;28;20049;-72
2023/07/05 04:06:45;;;;;;;0.30;0.30;;;;;;;20.75;60.41;99849.69;4984417;28;20057;-72
2023/07/05 04:09:11;;;;;;;0.30;0.30;;;;;;;20.81;60.19;99851.16;5020731;28;20064;-73
2023/07/05 04:11:37;;;;;;;0.30;0.30;;;;;;;20.88;59.97;99849.78;5014039;28;20049;-74
2023/07/05 04:14:03;;;;;;;0.30;0.30;;;;;;;20.88;60.21;99844.22;5014505;28;20432;-73
2023/07/05 04:16:29;;;;;;;0.30;0.30;;;;;;;20.99;60.13;99850.13;5017952;28;20536;-73
2023/07/05 04:18:57;;;;;;;0.30;0.30;;;;;;;21.14;59.39;99846.69;5018831;28;20058;-71
2023/07/05 04:21:24;;;;;;;;;;;;;;;21.24;59.86;99848.22;5017085;28;20053;-72
2023/07/05 04:23:51;;;;;;;0.30;0.30;;;;;;;21.33;58.76;99851.69;5019774;28;19944;-72
2023/07/05 04:26:19;;;;;;;0.30;0.30;;;;;;;21.33;58.59;99845.34;5016403;28;20467;-72
2023/07/05 04:28:45;;;;;;;0.30;0.30;;;;;;;21.36;58.26;99845.44;5015899;28;20100;-72
2023/07/05 04:31:15;;;;;;;0.40;0.40;;;;;;;21.52;58.38;99848.34;5002176;28;20048;-72
2023/07/05 04:33:41;;;;;;;0.30;0.30;;;;;;;21.74;57.56;99842.69;5023357;28;20061;-72
2023/07/05 04:36:07;;;;;;;0.30;0.30;;;;;;;21.92;57.01;99844.03;5018789;28;20056;-73
2023/07/05 04:38:35;;;;;;;0.30;0.30;;;;;;;21.95;57.33;99846.13;5014267;28;20096;-71
2023/07/05 04:41:01;;;;;;;0.30;0.30;;;;;;;22.15;56.65;99842.72;5013457;28;20520;-72
2023/07/05 04:43:27;;;;;;;0.30;0.30;;;;;;;22.37;56.01;99847.72;5021827;28;20144;-73
2023/07/05 04:45:55;;;;;;;0.30;0.30;;;;;;;22.61;55.30;99836.88;5007960;28;20045;-72
2023/07/05 04:48:21;;;;;;;;;;;;;;;22.78;55.18;99841.31;5025839;28;20045;-72
2023/07/05 04:50:50;;;;;;;0.40;0.40;;;;;;;22.96;53.50;99850.16;5026674;28;19925;-73
2023/07/05 04:53:16;;;;;;;0.30;0.30;;;;;;;22.98;52.93;99845.03;5013064;28;20055;-73
2023/07/05 04:55:48;;;;;;;0.30;0.30;;;;;;;22.90;53.06;99846.00;5017804;28;20063;-73
2023/07/05 04:58:15;;;;;;;0.30;0.30;;;;;;;22.96;52.92;99844.59;5013570;28;20467;-71
2023/07/05 05:00:46;;;;;;;0.40;0.40;;;;;;;23.07;51.94;99842.06;5018656;28;20042;-73
2023/07/05 05:03:13;;;;;;;0.40;0.40;;;;;;;23.22;51.88;99841.25;5017674;28;20045;-73
2023/07/05 05:05:41;;;;;;;0.40;0.32;;;;;;;23.52;51.42;99848.38;5000076;28;20045;-72
2023/07/05 05:08:07;;;;;;;0.30;0.30;;;;;;;23.60;51.20;99852.97;5018573;28;20124;-73
2023/07/05 05:10:36;;;;;;;0.30;0.30;;;;;;;23.70;50.93;99850.78;5018264;28;20089;-74
2023/07/05 05:13:04;;;;;;;0.30;0.30;;;;;;;23.79;50.56;99852.19;4988454;28;20056;-70
2023/07/05 05:15:33;;;;;;;0.40;0.40;;;;;;;23.84;50.73;99848.31;5003659;28;20049;-70
2023/07/05 05:18:00;;;;;;;0.30;0.30;;;;;;;23.84;49.55;99844.72;5017146;28;20048;-70
2023/07/05 05:20:28;;;;;;;0.30;0.30;;;;;;;23.83;49.75;99834.72;4998225;28;20581;-73
2023/07/05 05:22:54;;;;;;;0.30;0.30;;;;;;;23.84;49.21;99845.53;5019184;28;20497;-73
2023/07/05 05:25:20;;;;;;;0.33;0.33;;;;;;;23.86;49.32;99840.38;5025454;28;20057;-73
2023/07/05 05:27:47;;;;;;;0.30;0.30;;;;;;;23.90;49.05;99834.88;5022465;28;20315;-73
2023/07/05 05:30:15;;;;;;;0.32;0.32;;;;;;;23.89;48.64;99845.25;5015914;28;20056;-70
2023/07/05 05:32:41;;;;;;;0.30;0.30;;;;;;;23.91;48.77;99836.50;4971344;28;20049;-70
2023/07/05 05:35:08;;;;;;;0.30;0.30;;;;;;;23.93;48.21;99834.16;5014340;28;20155;-70
2023/07/05 05:37:34;;;;;;;0.35;0.35;;;;;;;23.97;48.13;99837.84;5012927;28;20421;-69
2023/07/05 05:40:00;;;;;;;0.30;0.30;;;;;;;23.85;48.08;99832.38;5012768;28;20076;-69
2023/07/05 05:42:29;;;;;;;0.30;0.30;;;;;;;23.78;48.29;99839.41;5004766;28;20076;-69
2023/07/05 05:44:55;;;;;;;;;;;;;;;23.85;48.86;99851.94;5003476;28;20476;-70
2023/07/05 05:47:22;;;;;;;0.30;0.30;;;;;;;23.90;47.70;99844.06;5001929;28;20028;-70
2023/07/05 05:49:48;;;;;;;0.30;0.30;;;;;;;23.99;47.33;99848.63;5004292;28;20144;-70
2023/07/05 05:52:15;;;;;;;0.30;0.30;;;;;;;24.07;47.18;99850.44;5002403;28;20137;-70
2023/07/05 05:54:41;;;;;;;0.30;0.30;;;;;;;24.15;46.85;99848.63;5001568;28;20437;-70
2023/07/05 05:57:08;;;;;;;0.30;0.30;;;;;;;24.22;44.81;99851.56;5000811;28;20046;-70
2023/07/05 05:59:35;;;;;;;0.40;0.40;;;;;;;24.26;44.67;99844.03;4985681;28;20138;-73
2023/07/05 06:02:01;;;;;;;0.30;0.30;;;;;;;24.36;44.36;99835.09;5005292;28;20069;-72
2023/07/05 06:04:29;;;;;;;0.40;0.40;;;;;;;24.56;43.47;99842.66;5010356;28;20053;-72
2023/07/05 06:06:55;;;;;;;0.40;0.40;;;;;;;24.73;43.12;99852.53;5011659;28;20045;-73
2023/07/05 06:09:24;;;;;;;0.32;0.32;;;;;;;24.81;42.06;99847.94;5015063;28;20065;-73
2023/07/05 06:11:50;;;;;;;0.40;0.40;;;;;;;24.90;41.87;99845.72;4993557;28;20516;-73
2023/07/05 06:14:16;;;;;;;0.30;0.30;;;;;;;25.00;40.25;99853.50;4995402;28;20050;-73
2023/07/05 06:16:43;;;;;;;0.30;0.30;;;;;;;24.95;39.55;99853.00;4993683;28;20111;-73
2023/07/05 06:19:09;;;;;;;0.30;0.30;;;;;;;24.82;38.87;99860.72;5011938;28;20052;-73
2023/07/05 06:21:37;;;;;;;0.43;0.40;;;;;;;24.68;39.34;99852.84;5017255;28;20298;-73
2023/07/05 06:24:03;;;;;;;0.30;0.30;;;;;;;24.68;39.53;99873.25;5020603;28;20401;-72
2023/07/05 06:26:30;;;;;;;0.30;0.30;;;;;;;24.58;39.88;99855.06;5014523;28;20072;-72
2023/07/05 06:28:56;;;;;;;0.20;0.20;;;;;;;24.55;40.33;99857.81;5001566;28;20050;-73
2023/07/05 06:31:22;;;;;;;0.30;0.30;;;;;;;24.60;39.66;99871.47;5020705;28;20077;-74
2023/07/05 06:33:48;;;;;;;0.30;0.30;;;;;;;24.81;39.17;99859.09;5020695;28;20300;-74
2023/07/05 06:36:15;;;;;;;0.30;0.30;;;;;;;25.01;39.06;99846.72;5015779;28;20054;-74
2023/07/05 06:38:42;;;;;;;0.30;0.30;;;;;;;25.14;38.90;99852.13;5033824;28;20045;-74
2023/07/05 06:41:09;;;;;;;0.30;0.30;;;;;;;25.33;39.41;99854.84;5018303;28;20065;-74
2023/07/05 06:43:35;;;;;;;0.30;0.30;;;;;;;25.45;39.42;99847.44;5002928;28;20431;-73
2023/07/05 06:46:01;;;;;;;0.40;0.40;;;;;;;25.67;39.46;99845.00;5020667;28;20041;-73
2023/07/05 06:48:27;;;;;;;0.40;0.40;;;;;;;25.85;38.68;99840.47;4999935;28;20835;-73
2023/07/05 06:50:54;;;;;;;0.40;0.40;;;;;;;25.87;38.51;99845.69;5020161;28;20061;-73
2023/07/05 06:53:21;;;;;;;0.40;0.40;;;;;;;25.97;38.08;99847.81;5013774;28;20054;-73
2023/07/05 06:55:49;;;;;;;0.38;0.38;;;;;;;26.20;38.26;99844.16;5019889;28;20092;-73
2023/07/05 06:58:16;;;;;;;0.47;0.47;;;;;;;26.43;37.00;99843.22;5016906;28;20457;-73
2023/07/05 07:00:45;;;;;;;0.40;0.40;;;;;;;26.48;36.35;99840.88;5013487;28;20045;-73
2023/07/05 07:03:11;;;;;;;0.45;0.40;;;;;;;26.70;35.80;99834.72;5017845;28;20053;-73
2023/07/05 07:05:37;;;;;;;0.40;0.40;;;;;;;26.78;35.91;99829.97;4998587;28;20499;-72
2023/07/05 07:08:04;;;;;;;0.40;0.40;;;;;;;26.83;35.87;99826.81;5022333;28;20453;-73
2023/07/05 07:10:30;;;;;;;;;;;;;;;26.81;35.52;99832.84;5020850;28;20045;-74
2023/07/05 07:12:58;;;;;;;0.40;0.40;;;;;;;26.71;35.42;99830.72;5022487;28;20020;-75
2023/07/05 07:15:24;;;;;;;0.40;0.40;;;;;;;26.70;35.87;99838.34;5020965;28;20300;-75
2023/07/05 07:17:51;;;;;;;0.40;0.40;;;;;;;26.83;35.94;99838.84;5019920;28;20472;-74
2023/07/05 07:20:19;;;;;;;0.40;0.40;;;;;;;26.82;36.59;99848.47;5001167;28;20050;-75
2023/07/05 07:22:45;;;;;;;0.40;0.40;;;;;;;26.72;37.47;99835.94;5025763;28;20521;-70
2023/07/05 07:25:11;;;;;;;0.40;0.40;;;;;;;26.60;37.66;99853.81;5005883;28;20228;-70
2023/07/05 07:27:37;;;;;;;0.40;0.40;;;;;;;26.44;37.98;99853.22;5016482;28;20060;-73
2023/07/05 07:30:06;;;;;;;0.40;0.40;;;;;;;26.24;38.99;99850.59;5009687;28;20050;-71
2023/07/05 07:32:32;;;;;;;0.40;0.40;;;;;;;26.26;39.13;99855.84;5014547;28;20045;-70
2023/07/05 07:34:59;;;;;;;0.40;0.40;;;;;;;26.17;37.85;99850.50;5022167;28;20053;-70
2023/07/05 07:37:25;;;;;;;0.30;0.30;;;;;;;25.98;37.56;99848.63;5023865;28;20561;-74
2023/07/05 07:39:51;;;;;;;0.40;0.40;;;;;;;25.97;37.55;99858.22;5024939;28;21074;-75
2023/07/05 07:42:17;;;;;;;0.40;0.40;;;;;;;26.08;37.69;99852.75;5022801;28;20398;-74
2023/07/05 07:44:43;;;;;;;0.40;0.40;;;;;;;26.23;37.12;99839.78;5025352;28;20053;-74
2023/07/05 07:47:11;;;;;;;0.40;0.40;;;;;;;26.42;37.31;99848.03;5021558;28;20049;-73
2023/07/05 07:49:37;;;;;;;0.40;0.40;;;;;;;26.47;37.07;99846.88;5021254;28;20397;-74
2023/07/05 07:52:07;;;;;;;0.40;0.40;;;;;;;26.45;37.02;99835.22;5002728;28;20417;-74
2023/07/05 07:54:33;;;;;;;0.40;0.40;;;;;;;26.50;37.03;99836.88;5020475;28;20069;-73
2023/07/05 07:57:00;;;;;;;0.40;0.40;;;;;;;26.60;36.98;99834.19;5000865;28;20682;-74
2023/07/05 07:59:26;;;;;;;0.40;0.40;;;;;;;26.54;37.13;99834.97;5033636;28;20045;-74
2023/07/05 08:01:53;;;;;;;0.40;0.40;;;;;;;26.52;37.36;99846.53;5014643;28;20038;-75
2023/07/05 08:04:20;;;;;;;;;;;;;;;26.54;36.80;99840.56;5012162;28;20316;-74
2023/07/05 08:06:49;;;;;;;0.40;0.40;;;;;;;26.65;36.64;99838.66;5018202;28;20187;-74
2023/07/05 08:09:17;;;;;;;0.40;0.40;;;;;;;26.73;36.25;99839.53;5017997;28;20050;-73
2023/07/05 08:11:43;;;;;;;0.40;0.40;;;;;;;26.79;36.39;99831.59;5022312;28;20135;-74
2023/07/05 08:14:10;;;;;;;0.30;0.30;;;;;;;26.78;36.02;99858.03;5000579;28;20046;-74
2023/07/05 08:16:36;;;;;;;0.40;0.40;;;;;;;26.51;36.28;99839.31;5023790;28;20128;-73
2023/07/05 08:19:02;;;;;;;0.40;0.40;;;;;;;26.36;36.62;99841.13;5014981;28;20099;-73
2023/07/05 08:21:30;;;;;;;0.40;0.40;;;;;;;26.36;36.86;99843.94;5016617;28;20058;-73
2023/07/05 08:23:57;;;;;;;0.40;0.40;;;;;;;26.36;36.83;99834.75;5018346;28;20523;-73
2023/07/05 08:26:23;;;;;;;0.40;0.40;;;;;;;26.42;36.81;99850.00;5021542;28;20519;-74
2023/07/05 08:28:49;;;;;;;0.40;0.40;;;;;;;26.37;37.62;99869.97;5018040;28;20449;-73
2023/07/05 08:31:16;;;;;;;0.43;0.43;;;;;;;26.36;37.82;99868.38;5016717;28;20049;-74
2023/07/05 08:33:43;;;;;;;0.50;0.50;;;;;;;26.57;37.84;99882.63;5020783;28;20137;-73
2023/07/05 08:36:18;;;;;;;0.40;0.40;;;;;;;26.59;37.58;99890.66;5017970;28;20046;-73
2023/07/05 08:38:48;;;;;;;0.50;0.50;;;;;;;26.50;37.91;99857.31;5016268;28;20058;-74
2023/07/05 08:41:24;;;;;;;0.50;0.50;;;;;;;26.45;38.11;99878.09;5022628;28;20509;-74
2023/07/05 08:43:59;;;;;;;0.50;0.50;;;;;;;26.48;38.26;99880.13;4987799;28;20468;-74
2023/07/05 08:46:27;;;;;;;0.50;0.50;;;;;;;26.47;38.19;99872.13;5021740;28;20095;-73
2023/07/05 08:48:59;;;;;;;0.50;0.50;;;;;;;26.55;38.27;99879.41;5022067;28;20242;-74
2023/07/05 08:51:26;;;;;;;0.60;0.60;;;;;;;26.92;38.13;99879.81;5016172;28;20054;-73
2023/07/05 08:53:59;;;;;;;0.60;0.60;;;;;;;27.41;37.25;99869.44;5018734;28;20073;-74
2023/07/05 08:56:31;;;;;;;0.70;0.70;;;;;;;27.86;36.49;99860.97;5021845;28;20072;-74
2023/07/05 08:59:05;;;;;;;0.50;0.50;;;;;;;28.41;35.37;99859.25;5012973;28;20050;-74
2023/07/05 09:01:36;;;;;;;0.50;0.50;;;;;;;28.50;35.82;99856.06;5019460;28;20056;-75
2023/07/05 09:04:02;;;;;;;0.60;0.60;;;;;;;28.44;35.85;99862.09;5017919;28;20045;-74
2023/07/05 09:06:38;;;;;;;0.50;0.50;;;;;;;28.56;36.21;99863.72;5018848;28;20044;-74
2023/07/05 09:09:27;;;;;;;0.50;0.50;;;;;;;28.14;36.36;99863.13;5018107;28;20049;-74
2023/07/05 09:12:05;;;;;;;0.70;0.70;;;;;;;27.97;37.06;99861.84;5031938;28;20058;-73
2023/07/05 09:14:46;;;;;;;0.50;0.50;;;;;;;28.28;36.10;99892.53;4997717;28;20042;-74
2023/07/05 09:17:20;;;;;;;0.55;0.55;;;;;;;28.05;36.84;99879.53;5019199;28;20123;-74
2023/07/05 09:19:58;;;;;;;0.68;0.68;;;;;;;27.63;37.45;99859.22;5003047;28;20090;-74
2023/07/05 09:22:30;;;;;;;0.50;0.50;;;;;;;27.73;37.49;99852.88;5014002;28;20042;-74
2023/07/05 09:24:59;;;;;;;0.68;0.68;;;;;;;27.76;37.80;99859.69;5022775;28;20061;-74
2023/07/05 09:27:31;;;;;;;0.50;0.50;;;;;;;27.91;37.01;99855.00;5010381;28;20048;-75
2023/07/05 09:30:06;;;;;;;0.60;0.60;;;;;;;27.85;37.60;99856.53;5006061;28;20045;-74
2023/07/05 09:32:36;;;;;;;0.50;0.50;;;;;;;27.66;38.06;99860.44;5022581;28;20045;-73
2023/07/05 09:35:04;;;;;;;0.50;0.50;;;;;;;27.71;38.42;99860.91;5008069;28;20177;-74
2023/07/05 09:37:34;;;;;;;0.50;0.50;;;;;;;28.09;37.55;99857.09;5023248;28;20156;-73
2023/07/05 09:40:12;;;;;;;0.40;0.40;;;;;;;28.02;37.66;99860.66;5025164;28;20103;-74
2023/07/05 09:42:44;;;;;;;0.50;0.50;;;;;;;27.92;37.86;99858.59;5007739;28;20057;-75
2023/07/05 09:45:12;;;;;;;0.50;0.50;;;;;;;27.92;38.01;99855.78;5026732;28;20097;-74
2023/07/05 09:47:38;;;;;;;0.50;0.50;;;;;;;27.96;38.16;99863.03;5028458;28;20052;-75
2023/07/05 09:50:13;;;;;;;0.50;0.50;;;;;;;28.02;38.06;99841.81;5025857;28;20052;-74
2023/07/05 09:52:40;;;;;;;0.60;0.60;;;;;;;28.45;37.69;99846.00;5025291;28;20151;-74
2023/07/05 09:55:13;;;;;;;0.60;0.60;;;;;;;28.99;36.37;99842.56;5023664;28;20081;-73
2023/07/05 09:57:39;;;;;;;0.60;0.60;;;;;;;29.14;36.55;99855.44;5025669;28;20049;-74
2023/07/05 10:00:21;;;;;;;0.40;0.40;;;;;;;29.15;36.28;99844.97;5027005;28;20508;-74
2023/07/05 10:02:49;;;;;;;0.45;0.45;;;;;;;28.22;37.47;99852.75;5024911;28;20042;-74
2023/07/05 10:05:25;;;;;;;0.40;0.40;;;;;;;27.60;39.17;99843.16;5025005;28;20054;-74
2023/07/05 10:07:55;;;;;;;0.30;0.30;;;;;;;27.18;40.47;99848.03;5024053;28;20104;-74
2023/07/05 10:10:24;;;;;;;0.30;0.30;;;;;;;26.75;41.25;99843.59;5026505;28;20076;-74
2023/07/05 10:13:00;;;;;;;0.30;0.30;;;;;;;26.49;42.01;99847.31;5008956;28;20057;-74
2023/07/05 10:15:26;;;;;;;0.30;0.30;;;;;;;26.24;42.14;99841.41;5027429;28;20428;-75
2023/07/05 10:17:55;;;;;;;0.30;0.30;;;;;;;25.97;42.78;99859.00;5024215;28;20152;-75
2023/07/05 10:20:25;;;;;;;0.38;0.38;;;;;;;25.74;42.95;99859.91;5021252;28;20331;-75
2023/07/05 10:22:59;;;;;;;0.30;0.30;;;;;;;25.59;43.71;99852.47;5024520;28;20096;-74
2023/07/05 10:25:33;;;;;;;0.30;0.30;;;;;;;25.56;43.86;99854.03;5025910;28;20052;-74
2023/07/05 10:28:02;;;;;;;0.30;0.30;;;;;;;25.54;44.20;99850.81;5027070;28;20048;-74
2023/07/05 10:30:29;;;;;;;0.30;0.30;;;;;;;25.49;44.25;99857.50;5008513;28;20524;-74
2023/07/05 10:33:09;;;;;;;;;;;;;;;25.40;44.53;99859.75;5025066;28;20152;-70
2023/07/05 10:35:45;;;;;;;0.30;0.30;;;;;;;25.27;44.94;99861.91;5022603;28;20002;-70
2023/07/05 10:38:19;;;;;;;0.30;0.30;;;;;;;25.18;45.34;99864.97;5025726;28;20063;-71
2023/07/05 10:40:48;;;;;;;0.30;0.30;;;;;;;25.21;45.75;99863.44;5006478;28;20054;-70
2023/07/05 10:43:14;;;;;;;0.30;0.30;;;;;;;25.23;45.57;99866.66;5008225;28;20512;-70
2023/07/05 10:45:41;;;;;;;0.30;0.30;;;;;;;25.37;45.61;99868.09;5027818;28;20056;-71
2023/07/05 10:48:15;;;;;;;0.30;0.30;;;;;;;25.53;45.41;99873.59;5029977;28;20072;-70
2023/07/05 10:50:42;;;;;;;0.40;0.40;;;;;;;25.48;45.69;99871.91;5029171;28;20037;-71
2023/07/05 10:53:12;;;;;;;0.30;0.30;;;;;;;25.31;46.36;99870.38;5027381;28;20053;-70
2023/07/05 10:55:44;;;;;;;0.40;0.40;;;;;;;25.33;46.41;99879.22;5025991;28;20050;-70
2023/07/05 10:58:16;;;;;;;0.40;0.40;;;;;;;25.22;46.12;99865.03;4993127;28;20084;-70
2023/07/05 11:00:48;;;;;;;0.30;0.30;;;;;;;25.11;46.79;99872.44;5011764;28;20505;-70
2023/07/05 11:03:21;;;;;;;0.30;0.30;;;;;;;24.97;47.26;99879.38;5040724;28;20045;-70
2023/07/05 11:05:50;;;;;;;0.30;0.30;;;;;;;24.88;47.50;99885.22;5029157;28;20045;-70
2023/07/05 11:08:20;;;;;;;0.30;0.30;;;;;;;24.98;47.12;99877.41;4675209;28;10000566;-70
2023/07/05 11:10:48;;;;;;;0.30;0.30;;;;;;;24.99;46.94;99876.22;5019627;28;20611;-70
2023/07/05 11:13:17;;;;;;;0.30;0.30;;;;;;;24.88;47.15;99890.00;5024891;28;20049;-70
2023/07/05 11:15:45;;;;;;;0.30;0.30;;;;;;;24.72;47.55;99881.66;5008890;28;20519;-70
2023/07/05 11:18:15;;;;;;;0.30;0.30;;;;;;;24.66;48.02;99900.72;5022697;28;20544;-70
2023/07/05 11:20:47;;;;;;;0.30;0.30;;;;;;;24.56;48.21;99892.94;5006178;28;20095;-70
2023/07/05 11:23:51;;;;;;;0.30;0.30;;;;;;;24.56;48.82;99892.94;5025645;28;20054;-71
2023/07/05 11:26:30;;;;;;;0.30;0.30;;;;;;;24.57;48.70;99894.56;4986725;28;20058;-70
2023/07/05 11:28:57;;;;;;;0.20;0.20;;;;;;;24.61;48.86;99885.09;5004537;28;20049;-70
2023/07/05 11:31:58;;;;;;;0.30;0.30;;;;;;;24.71;47.98;99883.69;5003765;28;20129;-70
2023/07/05 11:34:41;;;;;;;0.30;0.30;;;;;;;24.85;47.84;99891.53;5005415;28;20642;-74
2023/07/05 11:37:38;;;;;;;0.30;0.30;;;;;;;24.97;48.14;99900.97;5017470;28;20501;-74
2023/07/05 11:41:00;;;;;;;0.40;0.40;;;;;;;24.87;47.35;99893.97;5004400;28;20555;-74
2023/07/05 11:43:34;;;;;;;0.30;0.30;;;;;;;24.84;47.68;99881.53;5002679;28;20153;-74